sensor_id;sensor_type;location;lat;lon;timestamp;pressure;altitude;pressure_sealevel;temperature;humidity
58658;BME280;44428;45.630;13.786;2022-12-18T00:00:43;102476.03;;;4.80;59.47
58658;BME280;44428;45.630;13.786;2022-12-18T00:03:09;102460.25;;;4.83;59.34
58658;BME280;44428;45.630;13.786;2022-12-18T00:05:35;102479.56;;;4.79;59.80
58658;BME280;44428;45.630;13.786;2022-12-18T00:08:01;102499.59;;;4.81;59.82
58658;BME280;44428;45.630;13.786;2022-12-18T00:10:28;102490.03;;;4.79;59.70
58658;BME280;44428;45.630;13.786;2022-12-18T00:12:54;102509.28;;;4.75;60.29
58658;BME280;44428;45.630;13.786;2022-12-18T00:15:20;102507.56;;;4.74;60.69
58658;BME280;44428;45.630;13.786;2022-12-18T00:17:45;102516.38;;;4.70;60.78
58658;BME280;44428;45.630;13.786;2022-12-18T00:20:11;102514.53;;;4.75;60.74
58658;BME280;44428;45.630;13.786;2022-12-18T00:22:37;102508.41;;;4.76;60.84
58658;BME280;44428;45.630;13.786;2022-12-18T00:25:03;102522.38;;;4.75;61.24
58658;BME280;44428;45.630;13.786;2022-12-18T00:27:29;102509.38;;;4.69;62.16
58658;BME280;44428;45.630;13.786;2022-12-18T00:29:54;102519.91;;;4.66;61.74
58658;BME280;44428;45.630;13.786;2022-12-18T00:32:20;102518.19;;;4.65;61.40
58658;BME280;44428;45.630;13.786;2022-12-18T00:34:46;102517.22;;;4.70;61.47
58658;BME280;44428;45.630;13.786;2022-12-18T00:37:11;102526.84;;;4.70;60.99
58658;BME280;44428;45.630;13.786;2022-12-18T00:39:37;102532.03;;;4.73;61.29
58658;BME280;44428;45.630;13.786;2022-12-18T00:42:03;102544.28;;;4.71;61.16
58658;BME280;44428;45.630;13.786;2022-12-18T00:44:47;102552.94;;;4.76;60.84
58658;BME280;44428;45.630;13.786;2022-12-18T00:47:13;102553.03;;;4.70;61.33
58658;BME280;44428;45.630;13.786;2022-12-18T00:49:38;102553.03;;;4.70;61.38
58658;BME280;44428;45.630;13.786;2022-12-18T00:52:04;102557.41;;;4.68;61.33
58658;BME280;44428;45.630;13.786;2022-12-18T00:54:30;102567.03;;;4.66;61.55
58658;BME280;44428;45.630;13.786;2022-12-18T00:56:55;102554.91;;;4.62;61.57
58658;BME280;44428;45.630;13.786;2022-12-18T00:59:21;102572.28;;;4.66;61.16
58658;BME280;44428;45.630;13.786;2022-12-18T01:01:47;102580.97;;;4.68;61.26
58658;BME280;44428;45.630;13.786;2022-12-18T01:04:13;102554.75;;;4.71;60.62
58658;BME280;44428;45.630;13.786;2022-12-18T01:06:39;102561.00;;;4.62;61.36
58658;BME280;44428;45.630;13.786;2022-12-18T01:09:05;102560.19;;;4.58;62.14
58658;BME280;44428;45.630;13.786;2022-12-18T01:11:31;102570.66;;;4.58;61.67
58658;BME280;44428;45.630;13.786;2022-12-18T01:13:57;102571.47;;;4.64;61.93
58658;BME280;44428;45.630;13.786;2022-12-18T01:16:22;102567.19;;;4.56;62.39
58658;BME280;44428;45.630;13.786;2022-12-18T01:18:52;102569.88;;;4.52;62.12
58658;BME280;44428;45.630;13.786;2022-12-18T01:21:18;102558.47;;;4.57;61.77
58658;BME280;44428;45.630;13.786;2022-12-18T01:23:44;102556.72;;;4.56;62.05
58658;BME280;44428;45.630;13.786;2022-12-18T01:26:15;102549.81;;;4.52;61.94
58658;BME280;44428;45.630;13.786;2022-12-18T01:28:41;102574.22;;;4.54;61.93
58658;BME280;44428;45.630;13.786;2022-12-18T01:31:17;102573.41;;;4.49;62.54
58658;BME280;44428;45.630;13.786;2022-12-18T01:33:44;102558.59;;;4.48;61.89
58658;BME280;44428;45.630;13.786;2022-12-18T01:36:25;102565.50;;;4.52;61.88
58658;BME280;44428;45.630;13.786;2022-12-18T01:38:51;102547.34;;;4.43;62.26
58658;BME280;44428;45.630;13.786;2022-12-18T01:41:20;102551.63;;;4.47;61.77
58658;BME280;44428;45.630;13.786;2022-12-18T01:46:15;102553.31;;;4.51;61.21
58658;BME280;44428;45.630;13.786;2022-12-18T01:48:41;102557.59;;;4.57;60.37
58658;BME280;44428;45.630;13.786;2022-12-18T01:51:09;102565.38;;;4.62;59.96
58658;BME280;44428;45.630;13.786;2022-12-18T01:53:36;102554.03;;;4.61;60.30
58658;BME280;44428;45.630;13.786;2022-12-18T01:56:02;102563.59;;;4.64;59.93
58658;BME280;44428;45.630;13.786;2022-12-18T02:01:00;102579.31;;;4.64;60.00
58658;BME280;44428;45.630;13.786;2022-12-18T02:03:26;102582.81;;;4.63;59.74
58658;BME280;44428;45.630;13.786;2022-12-18T02:08:38;102605.59;;;4.57;60.13
58658;BME280;44428;45.630;13.786;2022-12-18T02:11:13;102612.63;;;4.52;60.44
58658;BME280;44428;45.630;13.786;2022-12-18T02:14:18;102609.06;;;4.56;59.97
58658;BME280;44428;45.630;13.786;2022-12-18T02:22:11;102620.50;;;4.52;60.57
58658;BME280;44428;45.630;13.786;2022-12-18T02:25:09;102625.72;;;4.52;60.11
58658;BME280;44428;45.630;13.786;2022-12-18T02:27:37;102628.34;;;4.52;60.08
58658;BME280;44428;45.630;13.786;2022-12-18T02:30:06;102635.25;;;4.56;60.18
58658;BME280;44428;45.630;13.786;2022-12-18T02:32:37;102638.81;;;4.52;60.31
58658;BME280;44428;45.630;13.786;2022-12-18T02:35:06;102638.91;;;4.46;60.94
58658;BME280;44428;45.630;13.786;2022-12-18T02:37:34;102644.19;;;4.43;60.96
58658;BME280;44428;45.630;13.786;2022-12-18T02:40:04;102651.16;;;4.41;61.26
58658;BME280;44428;45.630;13.786;2022-12-18T02:42:32;102658.25;;;4.34;61.32
58658;BME280;44428;45.630;13.786;2022-12-18T02:44:59;102656.56;;;4.29;61.85
58658;BME280;44428;45.630;13.786;2022-12-18T02:47:29;102655.78;;;4.22;61.95
58658;BME280;44428;45.630;13.786;2022-12-18T02:58:04;102675.16;;;4.07;62.83
58658;BME280;44428;45.630;13.786;2022-12-18T03:00:41;102669.09;;;4.02;63.04
58658;BME280;44428;45.630;13.786;2022-12-18T03:03:25;102677.78;;;4.07;62.57
58658;BME280;44428;45.630;13.786;2022-12-18T03:06:03;102683.06;;;4.01;63.20
58658;BME280;44428;45.630;13.786;2022-12-18T03:08:35;102676.09;;;4.03;63.10
58658;BME280;44428;45.630;13.786;2022-12-18T03:11:05;102677.94;;;3.92;63.77
58658;BME280;44428;45.630;13.786;2022-12-18T03:13:37;102671.81;;;3.95;63.49
58658;BME280;44428;45.630;13.786;2022-12-18T03:16:10;102689.22;;;3.97;63.42
58658;BME280;44428;45.630;13.786;2022-12-18T03:18:46;102695.25;;;4.02;62.98
58658;BME280;44428;45.630;13.786;2022-12-18T03:21:14;102702.28;;;4.00;63.12
58658;BME280;44428;45.630;13.786;2022-12-18T03:23:47;102709.25;;;3.98;62.93
58658;BME280;44428;45.630;13.786;2022-12-18T03:26:15;102707.47;;;4.03;63.23
58658;BME280;44428;45.630;13.786;2022-12-18T03:28:49;102690.94;;;4.00;63.63
58658;BME280;44428;45.630;13.786;2022-12-18T03:31:19;102698.81;;;3.98;63.08
58658;BME280;44428;45.630;13.786;2022-12-18T03:33:53;102702.28;;;4.00;63.26
58658;BME280;44428;45.630;13.786;2022-12-18T03:36:23;102708.38;;;4.01;63.65
58658;BME280;44428;45.630;13.786;2022-12-18T03:38:50;102726.63;;;4.05;63.26
58658;BME280;44428;45.630;13.786;2022-12-18T03:44:26;102708.41;;;3.96;64.18
58658;BME280;44428;45.630;13.786;2022-12-18T03:52:05;102733.72;;;3.94;63.98
58658;BME280;44428;45.630;13.786;2022-12-18T03:54:33;102728.50;;;3.94;63.95
58658;BME280;44428;45.630;13.786;2022-12-18T03:57:13;102723.31;;;3.88;64.21
58658;BME280;44428;45.630;13.786;2022-12-18T03:59:41;102739.09;;;3.82;64.83
58658;BME280;44428;45.630;13.786;2022-12-18T04:02:08;102745.13;;;3.88;64.37
58658;BME280;44428;45.630;13.786;2022-12-18T04:04:37;102736.38;;;3.91;64.38
58658;BME280;44428;45.630;13.786;2022-12-18T04:07:04;102745.94;;;3.92;63.86
58658;BME280;44428;45.630;13.786;2022-12-18T04:09:33;102745.94;;;3.92;64.54
58658;BME280;44428;45.630;13.786;2022-12-18T04:11:59;102744.34;;;3.79;65.06
58658;BME280;44428;45.630;13.786;2022-12-18T04:14:25;102744.34;;;3.79;65.16
58658;BME280;44428;45.630;13.786;2022-12-18T04:16:54;102753.84;;;3.86;64.69
58658;BME280;44428;45.630;13.786;2022-12-18T04:19:25;102745.91;;;3.95;64.27
58658;BME280;44428;45.630;13.786;2022-12-18T04:21:52;102747.66;;;3.93;64.57
58658;BME280;44428;45.630;13.786;2022-12-18T04:24:18;102747.59;;;3.99;63.98
58658;BME280;44428;45.630;13.786;2022-12-18T04:26:53;102748.59;;;3.89;65.23
58658;BME280;44428;45.630;13.786;2022-12-18T04:29:24;102748.53;;;3.97;64.26
58658;BME280;44428;45.630;13.786;2022-12-18T04:31:51;102749.41;;;3.94;64.44
58658;BME280;44428;45.630;13.786;2022-12-18T04:34:16;102756.41;;;3.92;64.32
58658;BME280;44428;45.630;13.786;2022-12-18T04:36:48;102762.53;;;3.91;64.40
58658;BME280;44428;45.630;13.786;2022-12-18T04:39:14;102767.75;;;3.89;64.90
58658;BME280;44428;45.630;13.786;2022-12-18T04:41:44;102780.84;;;3.91;64.75
58658;BME280;44428;45.630;13.786;2022-12-18T04:44:12;102766.91;;;3.89;64.88
58658;BME280;44428;45.630;13.786;2022-12-18T04:46:37;102756.50;;;3.83;64.41
58658;BME280;44428;45.630;13.786;2022-12-18T04:49:03;102758.25;;;3.81;65.15
58658;BME280;44428;45.630;13.786;2022-12-18T04:51:29;102766.97;;;3.80;65.13
58658;BME280;44428;45.630;13.786;2022-12-18T04:53:54;102760.06;;;3.76;65.37
58658;BME280;44428;45.630;13.786;2022-12-18T04:56:20;102761.69;;;3.86;65.16
58658;BME280;44428;45.630;13.786;2022-12-18T04:58:46;102768.69;;;3.84;64.89
58658;BME280;44428;45.630;13.786;2022-12-18T05:01:13;102787.88;;;3.83;65.14
58658;BME280;44428;45.630;13.786;2022-12-18T05:03:39;102794.84;;;3.81;65.21
58658;BME280;44428;45.630;13.786;2022-12-18T05:06:06;102787.94;;;3.74;65.61
58658;BME280;44428;45.630;13.786;2022-12-18T05:08:32;102801.03;;;3.74;65.88
58658;BME280;44428;45.630;13.786;2022-12-18T05:11:18;102800.16;;;3.72;65.47
58658;BME280;44428;45.630;13.786;2022-12-18T05:13:44;102798.38;;;3.77;65.47
58658;BME280;44428;45.630;13.786;2022-12-18T05:16:10;102798.38;;;3.77;65.61
58658;BME280;44428;45.630;13.786;2022-12-18T05:18:36;102815.78;;;3.78;65.37
58658;BME280;44428;45.630;13.786;2022-12-18T05:21:02;102812.41;;;3.70;65.68
58658;BME280;44428;45.630;13.786;2022-12-18T05:23:28;102801.91;;;3.73;65.55
58658;BME280;44428;45.630;13.786;2022-12-18T05:25:59;102826.31;;;3.72;65.86
58658;BME280;44428;45.630;13.786;2022-12-18T05:28:26;102817.56;;;3.79;65.42
58658;BME280;44428;45.630;13.786;2022-12-18T05:30:54;102815.75;;;3.84;65.09
58658;BME280;44428;45.630;13.786;2022-12-18T05:33:22;102831.50;;;3.75;65.78
58658;BME280;44428;45.630;13.786;2022-12-18T05:35:52;102823.69;;;3.72;66.10
58658;BME280;44428;45.630;13.786;2022-12-18T05:38:19;102835.84;;;3.79;66.01
58658;BME280;44428;45.630;13.786;2022-12-18T05:40:45;102835.00;;;3.77;66.22
58658;BME280;44428;45.630;13.786;2022-12-18T05:43:11;102830.63;;;3.77;66.22
58658;BME280;44428;45.630;13.786;2022-12-18T05:45:38;102831.53;;;3.72;66.50
58658;BME280;44428;45.630;13.786;2022-12-18T05:48:04;102856.88;;;3.66;66.52
58658;BME280;44428;45.630;13.786;2022-12-18T05:50:30;102847.28;;;3.62;66.52
58658;BME280;44428;45.630;13.786;2022-12-18T05:53:00;102852.53;;;3.62;67.83
58658;BME280;44428;45.630;13.786;2022-12-18T05:55:26;102842.06;;;3.62;67.44
58658;BME280;44428;45.630;13.786;2022-12-18T05:57:51;102864.84;;;3.48;68.33
58658;BME280;44428;45.630;13.786;2022-12-18T06:00:17;102862.31;;;3.31;69.66
58658;BME280;44428;45.630;13.786;2022-12-18T06:02:47;102878.00;;;3.28;69.84
58658;BME280;44428;45.630;13.786;2022-12-18T06:05:12;102877.13;;;3.31;69.65
58658;BME280;44428;45.630;13.786;2022-12-18T06:07:39;102877.09;;;3.34;68.87
58658;BME280;44428;45.630;13.786;2022-12-18T06:10:06;102880.59;;;3.30;69.42
58658;BME280;44428;45.630;13.786;2022-12-18T06:12:31;102870.13;;;3.33;69.27
58658;BME280;44428;45.630;13.786;2022-12-18T06:14:59;102871.88;;;3.34;69.31
58658;BME280;44428;45.630;13.786;2022-12-18T06:17:31;102871.81;;;3.43;68.05
58658;BME280;44428;45.630;13.786;2022-12-18T06:19:57;102880.50;;;3.51;68.77
58658;BME280;44428;45.630;13.786;2022-12-18T06:22:23;102880.56;;;3.39;68.76
58658;BME280;44428;45.630;13.786;2022-12-18T06:24:49;102885.78;;;3.42;68.83
58658;BME280;44428;45.630;13.786;2022-12-18T06:27:15;102892.75;;;3.40;68.81
58658;BME280;44428;45.630;13.786;2022-12-18T06:29:41;102890.13;;;3.38;68.65
58658;BME280;44428;45.630;13.786;2022-12-18T06:32:07;102886.69;;;3.32;69.57
58658;BME280;44428;45.630;13.786;2022-12-18T06:34:33;102895.44;;;3.28;69.95
58658;BME280;44428;45.630;13.786;2022-12-18T06:36:59;102894.50;;;3.38;69.03
58658;BME280;44428;45.630;13.786;2022-12-18T06:39:27;102883.97;;;3.50;68.74
58658;BME280;44428;45.630;13.786;2022-12-18T06:41:53;102904.91;;;3.44;69.19
58658;BME280;44428;45.630;13.786;2022-12-18T06:44:18;102903.22;;;3.37;69.73
58658;BME280;44428;45.630;13.786;2022-12-18T06:46:44;102914.50;;;3.45;69.27
58658;BME280;44428;45.630;13.786;2022-12-18T06:49:10;102918.88;;;3.40;69.58
58658;BME280;44428;45.630;13.786;2022-12-18T06:51:36;102913.66;;;3.38;69.95
58658;BME280;44428;45.630;13.786;2022-12-18T06:54:02;102915.38;;;3.44;70.20
58658;BME280;44428;45.630;13.786;2022-12-18T06:56:28;102912.69;;;3.53;69.66
58658;BME280;44428;45.630;13.786;2022-12-18T06:58:54;102911.88;;;3.47;70.47
58658;BME280;44428;45.630;13.786;2022-12-18T07:01:20;102903.16;;;3.49;70.53
58658;BME280;44428;45.630;13.786;2022-12-18T07:03:47;102918.84;;;3.49;70.62
58658;BME280;44428;45.630;13.786;2022-12-18T07:06:18;102920.53;;;3.56;69.66
58658;BME280;44428;45.630;13.786;2022-12-18T07:08:45;102916.19;;;3.54;70.00
58658;BME280;44428;45.630;13.786;2022-12-18T07:11:11;102917.94;;;3.50;69.84
58658;BME280;44428;45.630;13.786;2022-12-18T07:13:37;102943.25;;;3.48;69.83
58658;BME280;44428;45.630;13.786;2022-12-18T07:16:08;102940.56;;;3.59;68.94
58658;BME280;44428;45.630;13.786;2022-12-18T07:18:34;102950.97;;;3.68;68.43
58658;BME280;44428;45.630;13.786;2022-12-18T07:21:05;102958.88;;;3.57;68.98
58658;BME280;44428;45.630;13.786;2022-12-18T07:23:32;102948.38;;;3.66;67.56
58658;BME280;44428;45.630;13.786;2022-12-18T07:26:03;102950.13;;;3.64;67.48
58658;BME280;44428;45.630;13.786;2022-12-18T07:28:29;102958.84;;;3.66;67.31
58658;BME280;44428;45.630;13.786;2022-12-18T07:30:55;102946.59;;;3.68;68.18
58658;BME280;44428;45.630;13.786;2022-12-18T07:33:21;102973.63;;;3.67;67.09
58658;BME280;44428;45.630;13.786;2022-12-18T07:35:46;102964.88;;;3.75;66.32
58658;BME280;44428;45.630;13.786;2022-12-18T07:38:12;102977.97;;;3.72;66.58
58658;BME280;44428;45.630;13.786;2022-12-18T07:40:38;102985.81;;;3.70;66.24
58658;BME280;44428;45.630;13.786;2022-12-18T07:43:03;102984.88;;;3.80;65.31
58658;BME280;44428;45.630;13.786;2022-12-18T07:45:29;102992.72;;;3.83;64.42
58658;BME280;44428;45.630;13.786;2022-12-18T07:47:55;102990.09;;;3.88;64.34
58658;BME280;44428;45.630;13.786;2022-12-18T07:50:20;103009.22;;;3.90;64.09
58658;BME280;44428;45.630;13.786;2022-12-18T07:52:46;103007.44;;;3.98;63.00
58658;BME280;44428;45.630;13.786;2022-12-18T07:55:12;103010.88;;;4.12;62.74
58658;BME280;44428;45.630;13.786;2022-12-18T07:57:37;103014.38;;;4.11;62.41
58658;BME280;44428;45.630;13.786;2022-12-18T08:00:03;103002.16;;;4.10;62.61
58658;BME280;44428;45.630;13.786;2022-12-18T08:02:37;103012.56;;;4.17;61.80
58658;BME280;44428;45.630;13.786;2022-12-18T08:05:03;103010.84;;;4.16;62.73
58658;BME280;44428;45.630;13.786;2022-12-18T08:07:29;103014.25;;;4.27;61.68
58658;BME280;44428;45.630;13.786;2022-12-18T08:09:55;103023.84;;;4.23;62.03
58658;BME280;44428;45.630;13.786;2022-12-18T08:12:21;103036.88;;;4.34;61.46
58658;BME280;44428;45.630;13.786;2022-12-18T08:14:46;103038.59;;;4.38;60.82
58658;BME280;44428;45.630;13.786;2022-12-18T08:17:12;103038.53;;;4.44;60.88
58658;BME280;44428;45.630;13.786;2022-12-18T08:19:37;103042.94;;;4.41;60.48
58658;BME280;44428;45.630;13.786;2022-12-18T08:22:03;103031.59;;;4.43;59.66
58658;BME280;44428;45.630;13.786;2022-12-18T08:24:29;103026.34;;;4.43;60.02
58658;BME280;44428;45.630;13.786;2022-12-18T08:26:55;103040.31;;;4.45;59.77
58658;BME280;44428;45.630;13.786;2022-12-18T08:29:22;103028.06;;;4.47;59.76
58658;BME280;44428;45.630;13.786;2022-12-18T08:31:48;103038.53;;;4.44;60.64
58658;BME280;44428;45.630;13.786;2022-12-18T08:34:14;103035.03;;;4.51;60.15
58658;BME280;44428;45.630;13.786;2022-12-18T08:36:40;103018.41;;;4.52;60.44
58658;BME280;44428;45.630;13.786;2022-12-18T08:39:06;103031.53;;;4.49;60.32
58658;BME280;44428;45.630;13.786;2022-12-18T08:41:31;103038.47;;;4.53;59.94
58658;BME280;44428;45.630;13.786;2022-12-18T08:43:57;103031.44;;;4.62;59.91
58658;BME280;44428;45.630;13.786;2022-12-18T08:46:42;103053.19;;;4.68;59.58
58658;BME280;44428;45.630;13.786;2022-12-18T08:49:09;103061.03;;;4.73;59.49
58658;BME280;44428;45.630;13.786;2022-12-18T08:51:35;103068.91;;;4.73;59.56
58658;BME280;44428;45.630;13.786;2022-12-18T08:54:02;103068.00;;;4.74;59.19
58658;BME280;44428;45.630;13.786;2022-12-18T08:56:27;103059.22;;;4.78;59.25
58658;BME280;44428;45.630;13.786;2022-12-18T08:58:55;103066.25;;;4.76;59.24
58658;BME280;44428;45.630;13.786;2022-12-18T09:01:22;103074.94;;;4.78;59.45
58658;BME280;44428;45.630;13.786;2022-12-18T09:03:49;103055.72;;;4.82;59.67
58658;BME280;44428;45.630;13.786;2022-12-18T09:06:16;103067.03;;;4.86;59.44
58658;BME280;44428;45.630;13.786;2022-12-18T09:08:46;103069.66;;;4.84;59.76
58658;BME280;44428;45.630;13.786;2022-12-18T09:11:14;103064.41;;;4.87;59.80
58658;BME280;44428;45.630;13.786;2022-12-18T09:13:40;103074.00;;;4.88;59.87
58658;BME280;44428;45.630;13.786;2022-12-18T09:16:06;103071.31;;;4.97;59.45
58658;BME280;44428;45.630;13.786;2022-12-18T09:18:32;103072.97;;;5.04;59.18
58658;BME280;44428;45.630;13.786;2022-12-18T09:20:57;103071.16;;;5.13;59.11
58658;BME280;44428;45.630;13.786;2022-12-18T09:23:23;103088.56;;;5.17;58.39
58658;BME280;44428;45.630;13.786;2022-12-18T09:25:49;103094.66;;;5.20;58.60
58658;BME280;44428;45.630;13.786;2022-12-18T09:28:17;103079.84;;;5.18;58.30
58658;BME280;44428;45.630;13.786;2022-12-18T09:30:45;103098.88;;;5.35;58.02
58658;BME280;44428;45.630;13.786;2022-12-18T09:33:12;103097.63;;;7.90;51.83
58658;BME280;44428;45.630;13.786;2022-12-18T09:35:41;103092.56;;;9.62;46.50
58658;BME280;44428;45.630;13.786;2022-12-18T09:38:12;103086.97;;;10.87;43.10
58658;BME280;44428;45.630;13.786;2022-12-18T09:43:24;103088.22;;;12.89;38.57
58658;BME280;44428;45.630;13.786;2022-12-18T09:45:56;103086.13;;;12.97;37.55
58658;BME280;44428;45.630;13.786;2022-12-18T09:48:31;103091.69;;;14.10;36.33
58658;BME280;44428;45.630;13.786;2022-12-18T09:51:23;103101.88;;;15.44;34.18
58658;BME280;44428;45.630;13.786;2022-12-18T09:53:53;103102.16;;;15.73;32.59
58658;BME280;44428;45.630;13.786;2022-12-18T09:56:21;103095.22;;;15.86;32.34
58658;BME280;44428;45.630;13.786;2022-12-18T09:58:59;103086.41;;;16.79;30.71
58658;BME280;44428;45.630;13.786;2022-12-18T10:01:27;103091.66;;;17.11;30.28
58658;BME280;44428;45.630;13.786;2022-12-18T10:03:53;103083.06;;;18.20;28.82
58658;BME280;44428;45.630;13.786;2022-12-18T10:11:46;103087.78;;;16.86;29.52
58658;BME280;44428;45.630;13.786;2022-12-18T10:14:32;103069.34;;;17.55;28.91
58658;BME280;44428;45.630;13.786;2022-12-18T10:17:12;103064.59;;;17.46;28.64
58658;BME280;44428;45.630;13.786;2022-12-18T10:19:59;103067.59;;;18.11;27.69
58658;BME280;44428;45.630;13.786;2022-12-18T10:27:41;103059.84;;;18.88;27.07
58658;BME280;44428;45.630;13.786;2022-12-18T10:30:18;103073.25;;;18.88;26.34
58658;BME280;44428;45.630;13.786;2022-12-18T10:32:44;103065.75;;;18.80;27.06
58658;BME280;44428;45.630;13.786;2022-12-18T10:35:23;103074.78;;;19.30;25.73
58658;BME280;44428;45.630;13.786;2022-12-18T10:38:20;103075.31;;;19.48;25.60
58658;BME280;44428;45.630;13.786;2022-12-18T10:40:49;103078.69;;;19.64;25.49
58658;BME280;44428;45.630;13.786;2022-12-18T10:43:20;103071.34;;;19.66;25.49
58658;BME280;44428;45.630;13.786;2022-12-18T10:48:23;103069.44;;;18.38;26.89
58658;BME280;44428;45.630;13.786;2022-12-18T10:50:50;103066.38;;;18.84;26.63
58658;BME280;44428;45.630;13.786;2022-12-18T10:53:25;103056.31;;;19.51;26.26
58658;BME280;44428;45.630;13.786;2022-12-18T10:55:53;103052.41;;;19.94;25.61
58658;BME280;44428;45.630;13.786;2022-12-18T10:58:37;103054.16;;;20.43;24.92
58658;BME280;44428;45.630;13.786;2022-12-18T11:03:37;103046.69;;;21.05;24.07
58658;BME280;44428;45.630;13.786;2022-12-18T11:06:24;103042.75;;;20.98;23.91
58658;BME280;44428;45.630;13.786;2022-12-18T11:09:02;103039.56;;;20.93;24.38
58658;BME280;44428;45.630;13.786;2022-12-18T11:11:29;103030.34;;;21.31;23.60
58658;BME280;44428;45.630;13.786;2022-12-18T11:16:27;103036.47;;;20.51;24.62
58658;BME280;44428;45.630;13.786;2022-12-18T11:18:53;103028.50;;;20.14;24.50
58658;BME280;44428;45.630;13.786;2022-12-18T11:21:19;103030.06;;;20.54;24.58
58658;BME280;44428;45.630;13.786;2022-12-18T11:23:52;103022.72;;;20.91;23.92
58658;BME280;44428;45.630;13.786;2022-12-18T11:26:18;103019.31;;;21.12;23.65
58658;BME280;44428;45.630;13.786;2022-12-18T11:28:49;103013.69;;;20.57;24.36
58658;BME280;44428;45.630;13.786;2022-12-18T11:33:47;103019.00;;;20.70;24.53
58658;BME280;44428;45.630;13.786;2022-12-18T11:36:16;103019.25;;;20.67;23.71
58658;BME280;44428;45.630;13.786;2022-12-18T11:38:44;103020.50;;;20.26;24.19
58658;BME280;44428;45.630;13.786;2022-12-18T11:41:24;103023.88;;;20.41;24.46
58658;BME280;44428;45.630;13.786;2022-12-18T11:44:14;103020.50;;;20.26;24.66
58658;BME280;44428;45.630;13.786;2022-12-18T11:46:46;103024.19;;;20.25;24.70
58658;BME280;44428;45.630;13.786;2022-12-18T11:49:20;103019.50;;;19.79;24.94
58658;BME280;44428;45.630;13.786;2022-12-18T11:54:32;103027.13;;;20.33;24.49
58658;BME280;44428;45.630;13.786;2022-12-18T11:57:05;103032.91;;;20.64;23.64
58658;BME280;44428;45.630;13.786;2022-12-18T12:08:09;103024.50;;;20.44;24.07
58658;BME280;44428;45.630;13.786;2022-12-18T12:10:53;103015.91;;;20.39;24.08
58658;BME280;44428;45.630;13.786;2022-12-18T12:27:15;103014.16;;;20.03;24.94
58658;BME280;44428;45.630;13.786;2022-12-18T12:35:44;103008.06;;;20.25;24.41
58658;BME280;44428;45.630;13.786;2022-12-18T12:38:32;103004.56;;;20.35;24.39
58658;BME280;44428;45.630;13.786;2022-12-18T12:41:03;103006.56;;;20.80;23.70
58658;BME280;44428;45.630;13.786;2022-12-18T12:43:42;103009.50;;;20.77;23.42
58658;BME280;44428;45.630;13.786;2022-12-18T12:46:12;103009.72;;;20.74;23.56
58658;BME280;44428;45.630;13.786;2022-12-18T12:51:18;103017.03;;;20.72;23.54
58658;BME280;44428;45.630;13.786;2022-12-18T12:53:45;103016.81;;;20.75;23.95
58658;BME280;44428;45.630;13.786;2022-12-18T12:56:14;103020.75;;;20.93;23.92
58658;BME280;44428;45.630;13.786;2022-12-18T13:01:41;103023.19;;;20.96;23.31
58658;BME280;44428;45.630;13.786;2022-12-18T13:04:34;103022.50;;;20.94;23.22
58658;BME280;44428;45.630;13.786;2022-12-18T13:13:09;103029.63;;;20.47;23.94
58658;BME280;44428;45.630;13.786;2022-12-18T13:15:42;103044.16;;;20.21;24.18
58658;BME280;44428;45.630;13.786;2022-12-18T13:20:40;103039.25;;;20.14;24.75
58658;BME280;44428;45.630;13.786;2022-12-18T13:23:26;103038.66;;;19.98;24.85
58658;BME280;44428;45.630;13.786;2022-12-18T13:25:57;103032.50;;;19.59;24.91
58658;BME280;44428;45.630;13.786;2022-12-18T13:34:24;103041.78;;;19.04;25.68
58658;BME280;44428;45.630;13.786;2022-12-18T13:36:51;103047.28;;;18.75;26.21
58658;BME280;44428;45.630;13.786;2022-12-18T13:41:54;103057.81;;;18.24;26.85
58658;BME280;44428;45.630;13.786;2022-12-18T13:44:59;103054.19;;;17.84;27.16
58658;BME280;44428;45.630;13.786;2022-12-18T13:47:33;103057.16;;;17.51;27.55
58658;BME280;44428;45.630;13.786;2022-12-18T13:50:02;103056.19;;;17.23;27.92
58658;BME280;44428;45.630;13.786;2022-12-18T13:52:37;103064.38;;;16.60;29.02
58658;BME280;44428;45.630;13.786;2022-12-18T13:55:10;103075.81;;;16.16;29.27
58658;BME280;44428;45.630;13.786;2022-12-18T13:57:41;103052.97;;;15.45;30.33
58658;BME280;44428;45.630;13.786;2022-12-18T14:02:51;103062.44;;;15.00;31.65
58658;BME280;44428;45.630;13.786;2022-12-18T14:05:34;103061.28;;;14.71;31.62
58658;BME280;44428;45.630;13.786;2022-12-18T14:08:12;103057.13;;;14.10;32.96
58658;BME280;44428;45.630;13.786;2022-12-18T14:10:45;103052.03;;;13.68;33.59
58658;BME280;44428;45.630;13.786;2022-12-18T14:13:16;103048.31;;;13.72;33.56
58658;BME280;44428;45.630;13.786;2022-12-18T14:15:46;103043.66;;;13.38;34.24
58658;BME280;44428;45.630;13.786;2022-12-18T14:18:26;103035.31;;;13.26;34.38
58658;BME280;44428;45.630;13.786;2022-12-18T14:20:57;103035.94;;;12.70;35.64
58658;BME280;44428;45.630;13.786;2022-12-18T14:26:02;103045.59;;;12.51;36.47
58658;BME280;44428;45.630;13.786;2022-12-18T14:28:29;103040.66;;;12.42;36.73
58658;BME280;44428;45.630;13.786;2022-12-18T14:30:55;103041.66;;;12.17;37.21
58658;BME280;44428;45.630;13.786;2022-12-18T14:33:22;103043.50;;;11.93;37.46
58658;BME280;44428;45.630;13.786;2022-12-18T14:35:57;103052.72;;;11.81;38.01
58658;BME280;44428;45.630;13.786;2022-12-18T14:38:35;103060.09;;;11.24;38.88
58658;BME280;44428;45.630;13.786;2022-12-18T14:41:06;103047.66;;;10.76;39.98
58658;BME280;44428;45.630;13.786;2022-12-18T14:43:34;103049.13;;;10.59;40.10
58658;BME280;44428;45.630;13.786;2022-12-18T14:46:01;103052.13;;;10.20;41.11
58658;BME280;44428;45.630;13.786;2022-12-18T14:56:21;103050.28;;;9.00;44.30
58658;BME280;44428;45.630;13.786;2022-12-18T14:58:50;103059.56;;;8.81;44.59